createdAt,value
2022-08-05T00:01:36.587Z,22.40
2022-08-05T00:04:19.353Z,22.30
2022-08-05T00:06:51.944Z,22.20
2022-08-05T00:09:20.540Z,22.30
2022-08-05T00:11:55.256Z,22.30
2022-08-05T00:14:27.781Z,22.30
2022-08-05T00:16:58.057Z,22.20
2022-08-05T00:19:33.159Z,21.90
2022-08-05T00:22:02.408Z,21.70
2022-08-05T00:24:30.941Z,21.70
2022-08-05T00:27:00.086Z,21.70
2022-08-05T00:29:37.650Z,21.80
2022-08-05T00:32:12.870Z,21.80
2022-08-05T00:35:05.326Z,21.80
2022-08-05T00:37:51.098Z,21.80
2022-08-05T00:40:28.154Z,21.80
2022-08-05T00:42:59.659Z,21.80
2022-08-05T00:45:43.096Z,21.70
2022-08-05T00:48:13.643Z,21.60
2022-08-05T00:50:46.017Z,21.60
2022-08-05T00:53:44.853Z,21.50
2022-08-05T00:56:04.553Z,21.50
2022-08-05T00:58:32.695Z,21.50
2022-08-05T01:01:00.891Z,21.40
2022-08-05T01:03:31.006Z,21.30
2022-08-05T01:06:05.573Z,21.30
2022-08-05T01:08:42.895Z,21.20
2022-08-05T01:11:22.526Z,21.10
2022-08-05T01:14:08.739Z,21.10
2022-08-05T01:16:44.967Z,21.10
2022-08-05T01:19:36.534Z,21.10
2022-08-05T01:22:30.734Z,21.10
2022-08-05T01:25:13.616Z,21.10
2022-08-05T01:28:14.451Z,21.20
2022-08-05T01:30:53.610Z,21.30
2022-08-05T01:33:29.413Z,21.40
2022-08-05T01:36:13.048Z,21.60
2022-08-05T01:38:48.550Z,21.70
2022-08-05T01:41:22.583Z,21.70
2022-08-05T01:43:57.335Z,21.70
2022-08-05T01:46:43.112Z,21.70
2022-08-05T01:49:23.000Z,21.70
2022-08-05T01:51:58.477Z,21.70
2022-08-05T01:54:33.235Z,21.70
2022-08-05T01:58:10.721Z,21.70
2022-08-05T01:59:55.999Z,21.70
2022-08-05T02:02:29.173Z,21.70
2022-08-05T02:05:01.698Z,21.70
2022-08-05T02:07:32.167Z,21.70
2022-08-05T02:10:03.217Z,21.60
2022-08-05T02:12:38.184Z,21.60
2022-08-05T02:15:13.654Z,21.60
2022-08-05T02:18:32.320Z,21.50
2022-08-05T02:20:47.425Z,21.50
2022-08-05T02:23:22.305Z,21.40
2022-08-05T02:25:52.381Z,21.20
2022-08-05T02:28:28.952Z,21.10
2022-08-05T02:31:04.166Z,21.00
2022-08-05T02:33:38.300Z,20.90
2022-08-05T02:36:09.810Z,20.90
2022-08-05T02:38:53.438Z,20.90
2022-08-05T02:41:28.420Z,20.90
2022-08-05T02:44:11.949Z,20.90
2022-08-05T02:46:58.989Z,20.90
2022-08-05T02:49:35.695Z,21.00
2022-08-05T02:52:08.611Z,21.10
2022-08-05T02:54:42.144Z,21.20
2022-08-05T02:58:19.662Z,21.30
2022-08-05T03:00:02.743Z,21.40
2022-08-05T03:02:36.100Z,21.40
2022-08-05T03:05:05.163Z,21.30
2022-08-05T03:07:59.248Z,21.20
2022-08-05T03:10:25.177Z,21.10
2022-08-05T03:12:54.652Z,20.90
2022-08-05T03:15:24.379Z,20.80
2022-08-05T03:17:57.594Z,20.70
2022-08-05T03:20:26.701Z,20.70
2022-08-05T03:22:57.663Z,20.70
2022-08-05T03:25:33.017Z,20.70
2022-08-05T03:28:03.306Z,20.60
2022-08-05T03:30:34.232Z,20.70
2022-08-05T03:33:06.169Z,20.70
2022-08-05T03:35:41.164Z,20.70
2022-08-05T03:38:12.009Z,20.80
2022-08-05T03:40:45.212Z,20.80
2022-08-05T03:44:08.336Z,20.90
2022-08-05T03:46:08.261Z,20.90
2022-08-05T03:48:38.021Z,20.90
2022-08-05T03:52:38.945Z,20.90
2022-08-05T03:54:59.166Z,20.80
2022-08-05T03:56:58.801Z,20.60
2022-08-05T03:59:47.590Z,20.60
2022-08-05T04:02:38.426Z,20.60
2022-08-05T04:05:11.413Z,20.50
2022-08-05T04:07:58.781Z,20.50
2022-08-05T04:10:32.043Z,20.50
2022-08-05T04:13:06.432Z,20.40
2022-08-05T04:15:36.546Z,20.40
2022-08-05T04:18:07.394Z,20.40
2022-08-05T04:20:41.306Z,20.40
2022-08-05T04:23:12.204Z,20.40
2022-08-05T04:25:57.853Z,20.30
2022-08-05T04:28:31.750Z,20.30
2022-08-05T04:31:01.357Z,20.30
2022-08-05T04:34:18.639Z,20.20
2022-08-05T04:36:44.947Z,20.20
2022-08-05T04:39:08.356Z,20.00
2022-08-05T04:41:38.700Z,20.00
2022-08-05T04:44:09.518Z,20.10
2022-08-05T04:46:38.684Z,20.20
2022-08-05T04:49:12.230Z,20.10
2022-08-05T04:51:45.482Z,20.00
2022-08-05T04:54:14.664Z,20.00
2022-08-05T04:56:43.667Z,20.00
2022-08-05T04:59:21.924Z,20.10
2022-08-05T05:02:07.136Z,20.10
2022-08-05T05:04:49.720Z,20.00
2022-08-05T05:07:23.876Z,19.80
2022-08-05T05:09:57.958Z,19.70
2022-08-05T05:12:27.426Z,19.60
2022-08-05T05:14:55.954Z,19.60
2022-08-05T05:17:24.977Z,19.80
2022-08-05T05:20:14.449Z,19.90
2022-08-05T05:22:44.289Z,20.00
2022-08-05T05:25:16.468Z,20.10
2022-08-05T05:27:48.613Z,20.10
2022-08-05T05:30:29.149Z,20.00
2022-08-05T05:33:00.475Z,19.90
2022-08-05T05:35:37.996Z,19.90
2022-08-05T05:38:13.259Z,19.90
2022-08-05T05:40:49.453Z,19.80
2022-08-05T05:43:22.270Z,19.80
2022-08-05T05:46:13.739Z,19.80
2022-08-05T05:48:45.842Z,19.90
2022-08-05T05:51:20.129Z,20.00
2022-08-05T05:53:57.173Z,20.00
2022-08-05T05:56:31.603Z,20.10
2022-08-05T05:59:03.219Z,20.10
2022-08-05T06:01:37.381Z,20.10
2022-08-05T06:04:08.342Z,20.20
2022-08-05T06:06:42.426Z,20.20
2022-08-05T06:09:17.593Z,20.20
2022-08-05T06:12:01.474Z,20.20
2022-08-05T06:14:30.932Z,20.20
2022-08-05T06:16:59.481Z,20.20
2022-08-05T06:19:35.001Z,20.20
2022-08-05T06:22:04.452Z,20.20
2022-08-05T06:24:37.144Z,20.20
2022-08-05T06:27:06.053Z,20.20
2022-08-05T06:29:53.372Z,20.20
2022-08-05T06:32:33.802Z,20.20
2022-08-05T06:35:06.105Z,20.10
2022-08-05T06:37:57.994Z,20.10
2022-08-05T06:40:32.478Z,20.10
2022-08-05T06:43:01.111Z,20.10
2022-08-05T06:45:45.071Z,20.10
2022-08-05T06:48:53.830Z,20.00
2022-08-05T06:51:09.644Z,20.10
2022-08-05T06:53:39.395Z,20.10
2022-08-05T06:56:25.762Z,20.10
2022-08-05T06:58:55.089Z,20.10
2022-08-05T07:01:23.409Z,20.10
2022-08-05T07:03:55.883Z,20.10
2022-08-05T07:06:24.024Z,20.10
2022-08-05T07:08:55.828Z,20.10
2022-08-05T07:11:25.702Z,20.00
2022-08-05T07:14:20.074Z,20.00
2022-08-05T07:18:01.616Z,20.00
2022-08-05T07:22:30.185Z,20.00
2022-08-05T07:24:59.907Z,20.00
2022-08-05T07:27:58.047Z,20.00
2022-08-05T07:30:33.457Z,20.00
2022-08-05T07:33:04.995Z,19.90
2022-08-05T07:35:55.607Z,19.80
2022-08-05T07:38:33.231Z,19.80
2022-08-05T07:42:07.408Z,19.70
2022-08-05T07:43:56.351Z,19.70
2022-08-05T07:46:26.616Z,19.80
2022-08-05T07:49:02.172Z,19.80
2022-08-05T07:51:37.609Z,19.90
2022-08-05T07:54:18.849Z,20.00
2022-08-05T07:57:02.822Z,20.00
2022-08-05T07:59:39.870Z,20.10
2022-08-05T08:02:15.656Z,20.30
2022-08-05T08:04:49.823Z,20.40
2022-08-05T08:07:22.501Z,20.50
2022-08-05T08:09:55.173Z,20.60
2022-08-05T08:12:36.902Z,20.60
2022-08-05T08:15:15.261Z,20.50
2022-08-05T08:17:49.748Z,20.40
2022-08-05T08:20:59.805Z,20.30
2022-08-05T08:23:59.976Z,20.40
2022-08-05T08:26:02.774Z,20.50
2022-08-05T08:28:36.849Z,20.60
2022-08-05T08:31:15.081Z,20.80
2022-08-05T08:33:45.995Z,20.90
2022-08-05T08:36:39.188Z,20.80
2022-08-05T08:39:15.493Z,20.90
2022-08-05T08:41:51.109Z,20.90
2022-08-05T08:45:24.391Z,20.80
2022-08-05T08:48:06.204Z,20.80
2022-08-05T08:50:30.036Z,20.80
2022-08-05T08:53:08.161Z,20.80
2022-08-05T08:56:04.015Z,20.80
2022-08-05T08:58:37.562Z,20.90
2022-08-05T09:01:16.536Z,21.00
2022-08-05T09:03:47.496Z,21.00
2022-08-05T09:06:21.347Z,20.80
2022-08-05T09:08:52.471Z,20.70
2022-08-05T09:11:51.580Z,20.70
2022-08-05T09:14:54.786Z,20.70
2022-08-05T09:16:57.823Z,20.70
2022-08-05T09:19:36.449Z,20.70
2022-08-05T09:22:21.974Z,20.60
2022-08-05T09:25:00.320Z,20.60
2022-08-05T09:28:04.211Z,20.70
2022-08-05T09:30:23.479Z,20.80
2022-08-05T09:32:52.787Z,21.00
2022-08-05T09:35:27.351Z,21.00
2022-08-05T09:38:16.488Z,21.10
2022-08-05T09:40:52.597Z,21.30
2022-08-05T09:43:40.738Z,21.50
2022-08-05T09:46:27.916Z,21.50
2022-08-05T09:49:06.864Z,21.60
2022-08-05T09:51:39.991Z,21.70
2022-08-05T09:54:10.028Z,21.80
2022-08-05T09:56:39.854Z,21.90
2022-08-05T09:59:19.496Z,21.90
2022-08-05T10:01:48.313Z,22.10
2022-08-05T10:04:38.556Z,22.20
2022-08-05T10:07:20.346Z,22.20
2022-08-05T10:10:14.339Z,22.50
2022-08-05T10:12:49.167Z,22.50
2022-08-05T10:15:23.236Z,22.50
2022-08-05T10:18:06.431Z,22.70
2022-08-05T10:20:37.434Z,22.80
2022-08-05T10:23:08.984Z,23.00
2022-08-05T10:25:56.307Z,23.10
2022-08-05T10:28:29.270Z,23.20
2022-08-05T10:32:49.009Z,23.30
2022-08-05T10:33:52.178Z,23.20
2022-08-05T10:36:23.466Z,23.30
2022-08-05T10:39:01.619Z,23.50
2022-08-05T10:41:45.527Z,23.50
2022-08-05T10:44:19.827Z,23.50
2022-08-05T10:46:51.038Z,23.50
2022-08-05T10:49:26.801Z,23.70
2022-08-05T10:52:00.663Z,23.80
2022-08-05T10:54:56.327Z,23.90
2022-08-05T10:57:32.465Z,24.20
2022-08-05T11:00:19.156Z,24.40
2022-08-05T11:03:24.893Z,24.50
2022-08-05T11:06:16.075Z,24.40
2022-08-05T11:09:24.181Z,24.30
2022-08-05T11:12:03.118Z,24.40
2022-08-05T11:17:58.768Z,24.50
2022-08-05T11:20:44.172Z,24.50
2022-08-05T11:24:04.473Z,24.40
2022-08-05T11:26:32.089Z,24.30
2022-08-05T11:29:12.914Z,24.10
2022-08-05T11:31:57.686Z,24.10
2022-08-05T11:34:39.350Z,24.00
2022-08-05T11:38:26.834Z,24.20
2022-08-05T11:40:03.081Z,24.30
2022-08-05T11:42:37.939Z,24.50
2022-08-05T11:45:22.999Z,24.80
2022-08-05T11:47:54.738Z,24.90
2022-08-05T11:50:23.542Z,25.00
2022-08-05T11:52:57.592Z,24.90
2022-08-05T11:55:32.333Z,24.90
2022-08-05T11:58:10.520Z,24.50
2022-08-05T12:00:44.444Z,24.20
2022-08-05T12:03:29.176Z,24.00
2022-08-05T12:06:10.016Z,24.10
2022-08-05T12:08:51.276Z,24.40
2022-08-05T12:11:21.848Z,24.60
2022-08-05T12:13:58.614Z,24.80
2022-08-05T12:16:39.216Z,24.90
2022-08-05T12:19:08.678Z,25.00
2022-08-05T12:21:43.108Z,24.90
2022-08-05T12:24:13.898Z,24.80
2022-08-05T12:26:47.788Z,24.60
2022-08-05T12:29:22.932Z,24.60
2022-08-05T12:31:55.318Z,24.70
2022-08-05T12:34:28.130Z,24.80
2022-08-05T12:36:57.830Z,24.90
2022-08-05T12:39:27.817Z,24.90
2022-08-05T12:42:03.484Z,24.80
2022-08-05T12:44:34.008Z,24.90
2022-08-05T12:47:04.032Z,24.90
2022-08-05T12:50:02.076Z,25.00
2022-08-05T12:52:38.848Z,25.20
2022-08-05T12:55:22.268Z,25.30
2022-08-05T12:58:48.356Z,25.30
2022-08-05T13:02:03.366Z,25.40
2022-08-05T13:03:38.994Z,25.30
2022-08-05T13:06:16.004Z,25.30
2022-08-05T13:08:50.884Z,25.40
2022-08-05T13:11:47.073Z,25.40
2022-08-05T13:14:19.859Z,25.40
2022-08-05T13:16:54.767Z,25.40
2022-08-05T13:19:27.601Z,25.20
2022-08-05T13:22:29.146Z,25.20
2022-08-05T13:25:00.721Z,25.10
2022-08-05T13:27:38.453Z,25.20
2022-08-05T13:30:32.799Z,25.30
2022-08-05T13:33:01.400Z,25.50
2022-08-05T13:35:47.406Z,25.50
2022-08-05T13:38:30.482Z,25.40
2022-08-05T13:41:00.247Z,25.10
2022-08-05T13:43:45.550Z,25.00
2022-08-05T13:46:30.798Z,24.90
2022-08-05T13:49:10.512Z,24.90
2022-08-05T13:51:46.614Z,24.90
2022-08-05T13:54:16.690Z,25.10
2022-08-05T13:56:51.625Z,25.40
2022-08-05T13:59:25.005Z,25.90
2022-08-05T14:01:58.038Z,26.50
2022-08-05T14:04:49.614Z,26.80
2022-08-05T14:07:25.634Z,27.40
2022-08-05T14:10:12.522Z,27.60
2022-08-05T14:12:42.633Z,27.90
2022-08-05T14:16:05.386Z,28.20
2022-08-05T14:18:01.021Z,28.70
2022-08-05T14:20:30.653Z,29.10
2022-08-05T14:23:00.284Z,29.00
2022-08-05T14:25:30.175Z,28.80
2022-08-05T14:27:58.761Z,29.10
2022-08-05T14:30:27.840Z,29.00
2022-08-05T14:32:57.034Z,28.70
2022-08-05T14:35:50.132Z,28.20
2022-08-05T14:38:33.212Z,27.60
2022-08-05T14:41:06.348Z,27.20
2022-08-05T14:43:58.810Z,26.90
2022-08-05T14:46:28.661Z,26.90
2022-08-05T14:49:06.734Z,26.90
2022-08-05T14:51:37.433Z,26.50
2022-08-05T14:54:27.602Z,26.20
2022-08-05T14:56:56.010Z,26.20
2022-08-05T14:59:24.321Z,26.00
2022-08-05T15:01:53.818Z,25.90
2022-08-05T15:04:22.853Z,25.90
2022-08-05T15:06:51.497Z,25.80
2022-08-05T15:09:51.496Z,25.90
2022-08-05T15:12:11.574Z,26.10
2022-08-05T15:14:49.834Z,26.60
2022-08-05T15:17:45.808Z,27.50
2022-08-05T15:20:18.207Z,28.30
2022-08-05T15:22:54.455Z,29.00
2022-08-05T15:25:51.236Z,29.20
2022-08-05T15:28:15.267Z,29.20
2022-08-05T15:30:45.551Z,29.40
2022-08-05T15:33:56.464Z,29.60
2022-08-05T15:36:04.045Z,29.80
2022-08-05T15:38:36.521Z,29.90
2022-08-05T15:41:22.822Z,29.80
2022-08-05T15:43:54.596Z,29.70
2022-08-05T15:46:25.297Z,29.40
2022-08-05T15:48:58.744Z,29.40
2022-08-05T15:52:12.619Z,29.20
2022-08-05T15:54:19.374Z,28.70
2022-08-05T15:56:48.806Z,27.90
2022-08-05T15:59:20.062Z,27.50
2022-08-05T16:01:52.623Z,27.30
2022-08-05T16:04:25.637Z,27.20
2022-08-05T16:06:55.484Z,27.00
2022-08-05T16:09:24.695Z,26.60
2022-08-05T16:11:54.802Z,26.40
2022-08-05T16:14:24.776Z,26.40
2022-08-05T16:16:55.838Z,26.40
2022-08-05T16:20:05.217Z,26.30
2022-08-05T16:22:15.454Z,26.20
2022-08-05T16:24:51.953Z,26.20
2022-08-05T16:27:32.146Z,26.10
2022-08-05T16:30:23.412Z,26.20
2022-08-05T16:32:55.161Z,26.20
2022-08-05T16:35:28.570Z,26.20
2022-08-05T16:38:01.838Z,26.10
2022-08-05T16:40:38.714Z,25.90
2022-08-05T16:43:08.268Z,25.80
2022-08-05T16:46:04.214Z,25.70
2022-08-05T16:48:35.379Z,25.70
2022-08-05T16:51:10.024Z,25.70
2022-08-05T16:54:05.992Z,25.60
2022-08-05T16:56:29.960Z,25.40
2022-08-05T16:59:01.838Z,25.30
2022-08-05T17:01:53.499Z,25.10
2022-08-05T17:04:26.345Z,25.10
2022-08-05T17:06:56.944Z,25.00
2022-08-05T17:09:29.521Z,25.00
2022-08-05T17:11:59.476Z,25.00
2022-08-05T17:14:37.386Z,25.10
2022-08-05T17:17:14.504Z,24.90
2022-08-05T17:19:45.369Z,24.90
2022-08-05T17:22:24.381Z,24.90
2022-08-05T17:24:57.588Z,24.80
2022-08-05T17:27:33.719Z,24.80
2022-08-05T17:30:12.159Z,24.80
2022-08-05T17:32:47.959Z,24.80
2022-08-05T17:35:20.566Z,24.70
2022-08-05T17:37:49.451Z,24.70
2022-08-05T17:40:22.556Z,24.60
2022-08-05T17:42:53.244Z,24.50
2022-08-05T17:45:37.949Z,24.50
2022-08-05T17:48:07.853Z,24.40
2022-08-05T17:50:36.475Z,24.30
2022-08-05T17:53:08.428Z,24.00
2022-08-05T17:55:39.784Z,23.90
2022-08-05T17:58:12.890Z,23.80
2022-08-05T18:00:47.492Z,23.70
2022-08-05T18:03:56.423Z,23.60
2022-08-05T18:06:12.196Z,23.50
2022-08-05T18:08:46.113Z,23.40
2022-08-05T18:11:24.516Z,23.40
2022-08-05T18:14:03.452Z,23.40
2022-08-05T18:16:34.623Z,23.40
2022-08-05T18:19:03.681Z,23.30
2022-08-05T18:22:08.567Z,23.30
2022-08-05T18:24:20.995Z,23.20
2022-08-05T18:26:49.336Z,23.10
2022-08-05T18:29:17.597Z,23.10
2022-08-05T18:32:12.768Z,23.00
2022-08-05T18:34:42.754Z,22.90
2022-08-05T18:37:12.269Z,22.80
2022-08-05T18:40:30.933Z,22.70
2022-08-05T18:42:29.310Z,22.60
2022-08-05T18:44:57.656Z,22.60
2022-08-05T18:47:29.715Z,22.50
2022-08-05T18:50:19.496Z,22.50
2022-08-05T18:52:50.795Z,22.50
2022-08-05T18:55:21.398Z,22.40
2022-08-05T18:57:54.040Z,22.20
2022-08-05T19:00:28.615Z,22.20
2022-08-05T19:03:04.093Z,22.10
2022-08-05T19:06:12.180Z,22.10
2022-08-05T19:08:30.925Z,22.00
2022-08-05T19:11:04.966Z,21.90
2022-08-05T19:13:35.768Z,21.80
2022-08-05T19:16:05.652Z,21.80
2022-08-05T19:18:56.702Z,21.60
2022-08-05T19:21:29.417Z,21.60
2022-08-05T19:24:05.686Z,21.60
2022-08-05T19:26:54.352Z,21.50
2022-08-05T19:29:26.555Z,21.50
2022-08-05T19:32:05.597Z,21.40
2022-08-05T19:34:38.219Z,21.40
2022-08-05T19:37:06.675Z,21.30
2022-08-05T19:39:45.639Z,21.30
2022-08-05T19:42:19.705Z,21.20
2022-08-05T19:45:05.758Z,21.00
2022-08-05T19:47:34.600Z,20.70
2022-08-05T19:50:10.553Z,20.40
2022-08-05T19:52:40.757Z,20.20
2022-08-05T19:56:14.577Z,19.90
2022-08-05T19:58:19.440Z,19.80
2022-08-05T20:00:47.039Z,19.80
2022-08-05T20:03:15.853Z,19.70
2022-08-05T20:05:51.205Z,19.70
2022-08-05T20:08:20.126Z,19.70
2022-08-05T20:10:49.660Z,19.70
2022-08-05T20:13:29.837Z,19.70
2022-08-05T20:16:07.386Z,19.70
2022-08-05T20:18:36.211Z,19.70
2022-08-05T20:21:07.677Z,19.70
2022-08-05T20:23:39.472Z,19.60
2022-08-05T20:26:19.648Z,19.60
2022-08-05T20:28:50.371Z,19.50
2022-08-05T20:31:22.893Z,19.50
2022-08-05T20:33:56.681Z,19.40
2022-08-05T20:36:26.759Z,19.40
2022-08-05T20:38:57.988Z,19.40
2022-08-05T20:41:44.334Z,19.40
2022-08-05T20:44:18.488Z,19.30
2022-08-05T20:46:48.020Z,19.30
2022-08-05T20:49:18.492Z,19.30
2022-08-05T20:51:54.131Z,19.20
2022-08-05T20:54:22.573Z,19.20
2022-08-05T20:56:53.084Z,19.10
2022-08-05T20:59:27.141Z,18.90
2022-08-05T21:02:09.557Z,18.80
2022-08-05T21:04:39.033Z,18.60
2022-08-05T21:07:09.043Z,18.50
2022-08-05T21:09:37.263Z,18.40
2022-08-05T21:12:19.882Z,18.30
2022-08-05T21:14:48.281Z,18.10
2022-08-05T21:17:16.743Z,18.00
2022-08-05T21:19:47.862Z,17.80
2022-08-05T21:22:23.215Z,17.70
2022-08-05T21:24:52.724Z,17.50
2022-08-05T21:27:25.239Z,17.40
2022-08-05T21:29:56.388Z,17.30
2022-08-05T21:32:26.710Z,17.20
2022-08-05T21:35:08.945Z,17.10
2022-08-05T21:37:52.635Z,17.10
2022-08-05T21:40:23.468Z,17.00
2022-08-05T21:42:53.635Z,16.90
2022-08-05T21:45:24.147Z,16.90
2022-08-05T21:47:57.258Z,16.80
2022-08-05T21:50:26.418Z,16.80
2022-08-05T21:52:58.951Z,16.70
2022-08-05T21:56:01.294Z,16.60
2022-08-05T21:58:30.682Z,16.50
2022-08-05T22:01:00.760Z,16.40
2022-08-05T22:03:49.007Z,16.40
2022-08-05T22:06:23.055Z,16.40
2022-08-05T22:09:14.035Z,16.30
2022-08-05T22:11:46.938Z,16.10
2022-08-05T22:14:34.517Z,16.00
2022-08-05T22:17:06.553Z,16.00
2022-08-05T22:20:00.832Z,15.70
2022-08-05T22:22:27.209Z,15.60
2022-08-05T22:25:18.263Z,15.70
2022-08-05T22:28:09.184Z,15.70
2022-08-05T22:30:56.262Z,15.70
2022-08-05T22:33:57.490Z,15.60
2022-08-05T22:36:16.565Z,15.60
2022-08-05T22:38:48.037Z,15.50
2022-08-05T22:42:05.694Z,15.50
2022-08-05T22:44:07.886Z,15.50
2022-08-05T22:46:40.177Z,15.50
2022-08-05T22:49:23.541Z,15.40
2022-08-05T22:52:04.612Z,15.40
2022-08-05T22:54:34.955Z,15.20
2022-08-05T22:57:05.154Z,15.10
2022-08-05T22:59:44.251Z,15.00
2022-08-05T23:02:18.222Z,14.90
2022-08-05T23:04:51.524Z,14.90
2022-08-05T23:07:22.037Z,14.90
2022-08-05T23:09:56.979Z,14.90
2022-08-05T23:12:32.825Z,15.00
2022-08-05T23:15:03.310Z,15.10
2022-08-05T23:17:34.985Z,15.20
2022-08-05T23:20:10.486Z,15.30
2022-08-05T23:22:47.034Z,15.50
2022-08-05T23:25:50.153Z,15.80
2022-08-05T23:28:07.610Z,16.00
2022-08-05T23:30:39.972Z,16.10
2022-08-05T23:33:16.418Z,16.20
2022-08-05T23:35:55.939Z,16.30
2022-08-05T23:38:25.917Z,16.30
2022-08-05T23:40:54.324Z,16.20
2022-08-05T23:44:02.940Z,16.10
2022-08-05T23:46:21.251Z,16.00
2022-08-05T23:48:59.988Z,15.80
2022-08-05T23:51:54.936Z,15.70
2022-08-05T23:54:26.065Z,15.60
2022-08-05T23:56:56.019Z,15.50
2022-08-05T23:59:37.771Z,15.40
